createdAt,value
2022-09-07T00:00:04.078Z,101257.28
2022-09-07T00:02:28.217Z,101262.03
2022-09-07T00:04:52.034Z,101260.00
2022-09-07T00:07:15.815Z,101258.44
2022-09-07T00:09:39.906Z,101252.50
2022-09-07T00:12:04.151Z,101243.63
2022-09-07T00:14:29.257Z,101244.44
2022-09-07T00:16:52.999Z,101242.06
2022-09-07T00:19:16.859Z,101244.97
2022-09-07T00:21:40.638Z,101237.44
2022-09-07T00:24:04.907Z,101238.28
2022-09-07T00:26:31.265Z,101236.22
2022-09-07T00:28:58.037Z,101229.41
2022-09-07T00:31:24.838Z,101242.16
2022-09-07T00:33:50.194Z,101238.75
2022-09-07T00:36:14.186Z,101248.81
2022-09-07T00:38:38.370Z,101249.47
2022-09-07T00:41:02.327Z,101251.00
2022-09-07T00:43:36.183Z,101242.69
2022-09-07T00:45:59.999Z,101233.16
2022-09-07T00:48:32.723Z,101247.88
2022-09-07T00:51:03.504Z,101234.75
2022-09-07T00:53:30.796Z,101224.28
2022-09-07T00:55:55.491Z,101231.69
2022-09-07T00:58:21.050Z,101230.09
2022-09-07T01:00:48.025Z,101226.66
2022-09-07T01:03:13.687Z,101233.22
2022-09-07T01:05:44.286Z,101225.72
2022-09-07T01:08:09.498Z,101230.78
2022-09-07T01:10:33.553Z,101223.66
2022-09-07T01:12:57.402Z,101224.47
2022-09-07T01:15:23.909Z,101217.31
2022-09-07T01:18:03.216Z,101213.91
2022-09-07T01:20:55.327Z,101214.00
2022-09-07T01:24:28.347Z,101213.91
2022-09-07T01:27:40.823Z,101217.31
2022-09-07T01:30:08.082Z,101216.00
2022-09-07T01:32:48.218Z,101214.13
2022-09-07T01:35:21.560Z,101205.38
2022-09-07T01:37:57.672Z,101205.38
2022-09-07T01:40:32.254Z,101211.06
2022-09-07T01:43:03.591Z,101214.25
2022-09-07T01:45:33.623Z,101223.34
2022-09-07T01:48:01.682Z,101209.00
2022-09-07T01:50:30.438Z,101208.22
2022-09-07T01:52:59.506Z,101203.94
2022-09-07T01:55:29.979Z,101188.09
2022-09-07T01:58:01.950Z,101201.72
2022-09-07T02:00:26.410Z,101205.56
2022-09-07T02:02:54.538Z,101210.28
2022-09-07T02:05:22.982Z,101207.03
2022-09-07T02:07:52.645Z,101206.75
2022-09-07T02:10:20.063Z,101201.06
2022-09-07T02:12:50.239Z,101208.34
2022-09-07T02:15:21.099Z,101197.66
2022-09-07T02:17:49.775Z,101200.84
2022-09-07T02:20:18.431Z,101204.81
2022-09-07T02:22:47.368Z,101205.47
2022-09-07T02:25:15.716Z,101199.91
2022-09-07T02:27:45.398Z,101198.06
2022-09-07T02:30:10.696Z,101198.91
2022-09-07T02:32:35.878Z,101202.84
2022-09-07T02:34:59.839Z,101208.63
2022-09-07T02:37:24.212Z,101204.19
2022-09-07T02:39:49.438Z,101204.94
2022-09-07T02:42:13.351Z,101198.50
2022-09-07T02:44:40.810Z,101197.97
2022-09-07T02:47:20.313Z,101191.47
2022-09-07T02:50:10.032Z,101194.22
2022-09-07T02:52:45.714Z,101185.09
2022-09-07T02:55:23.571Z,101177.63
2022-09-07T02:58:00.646Z,101186.19
2022-09-07T03:00:26.387Z,101185.63
2022-09-07T03:02:59.622Z,101190.03
2022-09-07T03:05:31.100Z,101190.63
2022-09-07T03:08:01.426Z,101189.25
2022-09-07T03:10:25.616Z,101183.28
2022-09-07T03:12:51.762Z,101184.84
2022-09-07T03:15:18.190Z,101187.94
2022-09-07T03:17:42.560Z,101182.50
2022-09-07T03:20:07.026Z,101184.84
2022-09-07T03:22:32.924Z,101187.00
2022-09-07T03:24:56.607Z,101176.13
2022-09-07T03:27:20.343Z,101179.94
2022-09-07T03:29:44.039Z,101178.59
2022-09-07T03:32:08.243Z,101189.59
2022-09-07T03:34:32.171Z,101181.53
2022-09-07T03:36:55.890Z,101181.53
2022-09-07T03:39:23.897Z,101179.97
2022-09-07T03:41:47.913Z,101167.56
2022-09-07T03:44:12.015Z,101163.53
2022-09-07T03:46:36.123Z,101161.09
2022-09-07T03:48:59.844Z,101161.09
2022-09-07T03:51:23.611Z,101155.69
2022-09-07T03:53:48.582Z,101152.56
2022-09-07T03:56:18.203Z,101157.19
2022-09-07T03:58:42.174Z,101143.91
2022-09-07T04:01:09.563Z,101138.50
2022-09-07T04:03:33.340Z,101132.69
2022-09-07T04:05:59.510Z,101133.94
2022-09-07T04:08:26.835Z,101138.97
2022-09-07T04:10:50.543Z,101137.38
2022-09-07T04:13:15.629Z,101140.81
2022-09-07T04:15:39.398Z,101134.25
2022-09-07T04:18:03.622Z,101140.66
2022-09-07T04:20:27.389Z,101135.41
2022-09-07T04:22:54.202Z,101141.00
2022-09-07T04:25:18.718Z,101129.84
2022-09-07T04:27:42.474Z,101132.91
2022-09-07T04:30:09.255Z,101127.88
2022-09-07T04:32:33.014Z,101129.75
2022-09-07T04:34:56.703Z,101124.63
2022-09-07T04:37:20.438Z,101128.16
2022-09-07T04:39:44.192Z,101124.50
2022-09-07T04:42:08.243Z,101128.41
2022-09-07T04:44:31.975Z,101123.13
2022-09-07T04:46:57.083Z,101133.63
2022-09-07T04:49:20.979Z,101131.34
2022-09-07T04:51:44.669Z,101135.50
2022-09-07T04:54:08.655Z,101134.94
2022-09-07T04:56:32.846Z,101131.53
2022-09-07T04:58:56.766Z,101132.50
2022-09-07T05:01:24.452Z,101130.22
2022-09-07T05:03:50.027Z,101133.78
2022-09-07T05:06:14.490Z,101129.41
2022-09-07T05:08:39.195Z,101123.56
2022-09-07T05:11:02.916Z,101122.00
2022-09-07T05:13:26.698Z,101119.25
2022-09-07T05:15:50.433Z,101125.78
2022-09-07T05:18:14.943Z,101125.63
2022-09-07T05:20:40.054Z,101127.88
2022-09-07T05:23:03.775Z,101124.69
2022-09-07T05:25:29.287Z,101123.84
2022-09-07T05:27:52.978Z,101126.47
2022-09-07T05:33:02.063Z,101124.81
2022-09-07T05:35:25.853Z,101116.81
2022-09-07T05:37:52.858Z,101111.81
2022-09-07T05:40:16.818Z,101115.91
2022-09-07T05:42:40.599Z,101112.47
2022-09-07T05:45:04.765Z,101115.22
2022-09-07T05:47:29.102Z,101120.28
2022-09-07T05:49:57.004Z,101124.16
2022-09-07T05:52:21.140Z,101133.94
2022-09-07T05:54:46.214Z,101120.75
2022-09-07T05:57:13.200Z,101124.25
2022-09-07T05:59:36.876Z,101130.44
2022-09-07T06:02:02.204Z,101129.59
2022-09-07T06:04:26.190Z,101128.22
2022-09-07T06:07:17.710Z,101127.88
2022-09-07T06:09:33.722Z,101120.06
2022-09-07T06:11:58.853Z,101118.03
2022-09-07T06:14:22.588Z,101127.72
2022-09-07T06:16:46.306Z,101122.78
2022-09-07T06:19:11.465Z,101114.34
2022-09-07T06:21:38.030Z,101116.22
2022-09-07T06:24:01.783Z,101115.13
2022-09-07T06:26:25.511Z,101119.00
2022-09-07T06:28:53.777Z,101116.84
2022-09-07T06:31:23.742Z,101114.94
2022-09-07T06:33:48.728Z,101112.75
2022-09-07T06:36:15.064Z,101109.53
2022-09-07T06:38:39.880Z,101108.59
2022-09-07T06:43:50.087Z,101104.78
2022-09-07T06:48:58.262Z,101106.75
2022-09-07T06:51:26.754Z,101112.13
2022-09-07T06:53:51.090Z,101115.88
2022-09-07T06:56:17.888Z,101111.50
2022-09-07T06:58:42.558Z,101116.41
2022-09-07T07:01:11.125Z,101104.72
2022-09-07T07:03:35.098Z,101109.50
2022-09-07T07:05:59.438Z,101096.63
2022-09-07T07:08:25.245Z,101095.19
2022-09-07T07:10:49.208Z,101090.63
2022-09-07T07:13:13.020Z,101093.72
2022-09-07T07:15:36.711Z,101088.47
2022-09-07T07:18:19.981Z,101081.69
2022-09-07T07:20:44.875Z,101082.06
2022-09-07T07:23:09.427Z,101076.63
2022-09-07T07:25:34.996Z,101088.00
2022-09-07T07:30:42.838Z,101071.16
2022-09-07T07:33:09.968Z,101072.63
2022-09-07T07:35:33.708Z,101071.75
2022-09-07T07:40:41.514Z,101089.81
2022-09-07T07:43:05.694Z,101084.09
2022-09-07T07:48:16.220Z,101093.41
2022-09-07T07:50:39.850Z,101095.72
2022-09-07T07:55:47.368Z,101094.88
2022-09-07T07:58:11.002Z,101088.59
2022-09-07T08:00:53.061Z,101088.78
2022-09-07T08:03:19.203Z,101091.31
2022-09-07T08:05:42.868Z,101084.00
2022-09-07T08:08:06.677Z,101080.78
2022-09-07T08:10:30.429Z,101067.06
2022-09-07T08:12:54.956Z,101068.84
2022-09-07T08:15:18.606Z,101061.91
2022-09-07T08:17:42.418Z,101076.31
2022-09-07T08:20:08.779Z,101077.78
2022-09-07T08:22:34.876Z,101079.81
2022-09-07T08:24:58.506Z,101084.38
2022-09-07T08:27:22.049Z,101084.44
2022-09-07T08:29:45.546Z,101088.53
2022-09-07T08:32:09.112Z,101089.78
2022-09-07T08:34:32.759Z,101085.47
2022-09-07T08:36:57.687Z,101072.25
2022-09-07T08:39:21.521Z,101074.41
2022-09-07T08:42:22.894Z,101071.06
2022-09-07T08:44:51.077Z,101072.41
2022-09-07T08:47:26.678Z,101060.69
2022-09-07T08:49:56.567Z,101063.91
2022-09-07T08:52:27.576Z,101055.72
2022-09-07T08:55:01.908Z,101063.53
2022-09-07T08:57:31.440Z,101051.44
2022-09-07T09:00:07.569Z,101058.41
2022-09-07T09:02:35.213Z,101050.69
2022-09-07T09:05:17.521Z,101044.31
2022-09-07T09:07:52.095Z,101046.97
2022-09-07T09:10:29.563Z,101037.97
2022-09-07T09:13:13.827Z,101043.97
2022-09-07T09:15:51.802Z,101036.78
2022-09-07T09:18:29.309Z,101043.72
2022-09-07T09:20:56.880Z,101037.53
2022-09-07T09:23:26.951Z,101048.66
2022-09-07T09:25:56.154Z,101044.16
2022-09-07T09:28:19.801Z,101041.75
2022-09-07T09:30:43.759Z,101044.00
2022-09-07T09:33:20.515Z,101047.03
2022-09-07T09:35:45.998Z,101044.97
2022-09-07T09:38:32.341Z,101039.78
2022-09-07T09:40:57.763Z,101029.38
2022-09-07T09:43:25.268Z,101026.22
2022-09-07T09:48:40.038Z,101020.72
2022-09-07T09:53:59.654Z,101028.94
2022-09-07T09:56:24.242Z,101026.91
2022-09-07T10:01:35.481Z,101018.91
2022-09-07T10:04:02.905Z,101022.06
2022-09-07T10:06:30.051Z,101020.34
2022-09-07T10:08:58.742Z,101016.53
2022-09-07T10:14:30.974Z,100998.50
2022-09-07T10:16:55.726Z,100994.66
2022-09-07T10:19:33.716Z,100993.50
2022-09-07T10:21:59.730Z,100995.97
2022-09-07T10:24:28.139Z,100979.19
2022-09-07T10:26:53.771Z,100987.97
2022-09-07T10:29:25.503Z,100989.22
2022-09-07T10:32:06.639Z,100993.34
2022-09-07T10:34:41.151Z,100984.06
2022-09-07T10:37:08.506Z,100988.22
2022-09-07T10:39:38.079Z,100991.00
2022-09-07T10:42:17.087Z,100986.81
2022-09-07T10:44:53.961Z,100984.19
2022-09-07T10:47:32.962Z,100984.44
2022-09-07T10:52:56.683Z,100977.59
2022-09-07T10:55:28.051Z,100982.72
2022-09-07T10:58:07.262Z,100986.44
2022-09-07T11:00:39.195Z,100970.59
2022-09-07T11:03:26.337Z,100979.66
2022-09-07T11:06:12.042Z,100977.06
2022-09-07T11:09:17.870Z,100974.50
2022-09-07T11:12:04.057Z,100958.19
2022-09-07T11:14:30.119Z,100959.75
2022-09-07T11:16:59.053Z,100965.44
2022-09-07T11:19:37.244Z,100964.75
2022-09-07T11:22:30.963Z,100962.00
2022-09-07T11:27:51.237Z,100972.09
2022-09-07T11:30:22.069Z,100977.41
2022-09-07T11:32:55.118Z,100971.28
2022-09-07T11:35:27.898Z,100959.19
2022-09-07T11:37:59.570Z,100966.97
2022-09-07T11:40:28.852Z,100961.00
2022-09-07T11:43:00.617Z,100963.94
2022-09-07T11:45:32.179Z,100967.63
2022-09-07T11:48:01.161Z,100957.53
2022-09-07T11:50:25.723Z,100962.41
2022-09-07T11:52:54.540Z,100959.91
2022-09-07T11:55:25.389Z,100966.31
2022-09-07T11:58:18.070Z,100974.53
2022-09-07T12:00:56.046Z,100967.38
2022-09-07T12:03:39.163Z,100973.16
2022-09-07T12:06:44.496Z,100956.72
2022-09-07T12:09:29.341Z,100967.31
2022-09-07T12:12:46.939Z,100957.47
2022-09-07T12:15:26.840Z,100963.47
2022-09-07T12:18:15.408Z,100959.03
2022-09-07T12:20:43.816Z,100958.72
2022-09-07T12:23:20.970Z,100944.84
2022-09-07T12:25:46.617Z,100940.69
2022-09-07T12:28:21.705Z,100940.53
2022-09-07T12:31:01.065Z,100937.78
2022-09-07T12:33:31.836Z,100930.31
2022-09-07T12:35:58.870Z,100933.59
2022-09-07T12:39:20.678Z,100932.78
2022-09-07T12:41:48.245Z,100931.16
2022-09-07T12:44:19.900Z,100928.38
2022-09-07T12:46:57.235Z,100932.44
2022-09-07T12:50:12.810Z,100926.59
2022-09-07T12:53:11.876Z,100922.75
2022-09-07T12:56:22.623Z,100917.34
2022-09-07T12:59:22.863Z,100919.31
2022-09-07T13:01:57.526Z,100917.13
2022-09-07T13:04:53.375Z,100908.34
2022-09-07T13:08:04.090Z,100908.56
2022-09-07T13:10:33.936Z,100910.63
2022-09-07T13:13:06.808Z,100906.41
2022-09-07T13:15:52.930Z,100902.69
2022-09-07T13:18:43.728Z,100908.22
2022-09-07T13:21:34.523Z,100915.69
2022-09-07T13:24:56.354Z,100913.72
2022-09-07T13:27:52.263Z,100910.16
2022-09-07T13:30:29.322Z,100905.34
2022-09-07T13:33:31.710Z,100905.31
2022-09-07T13:36:00.299Z,100900.22
2022-09-07T13:38:24.522Z,100897.66
2022-09-07T13:40:50.354Z,100895.59
2022-09-07T13:43:20.556Z,100888.88
2022-09-07T13:46:01.478Z,100892.94
2022-09-07T13:48:33.553Z,100891.28
2022-09-07T13:51:05.258Z,100886.75
2022-09-07T13:53:44.006Z,100902.59
2022-09-07T13:56:22.371Z,100896.22
2022-09-07T13:58:50.508Z,100893.59
2022-09-07T14:01:20.314Z,100894.41
2022-09-07T14:03:50.351Z,100881.91
2022-09-07T14:06:38.167Z,100883.34
2022-09-07T14:09:06.311Z,100882.50
2022-09-07T14:11:40.711Z,100884.41
2022-09-07T14:14:18.015Z,100879.25
2022-09-07T14:16:44.163Z,100876.28
2022-09-07T14:19:19.754Z,100879.81
2022-09-07T14:21:44.843Z,100879.06
2022-09-07T14:24:23.099Z,100873.56
2022-09-07T14:26:48.822Z,100872.13
2022-09-07T14:29:27.335Z,100865.56
2022-09-07T14:31:51.368Z,100872.69
2022-09-07T14:34:19.015Z,100864.09
2022-09-07T14:36:46.914Z,100870.47
2022-09-07T14:39:13.346Z,100865.56
2022-09-07T14:41:40.650Z,100864.22
2022-09-07T14:44:04.429Z,100867.78
2022-09-07T14:46:30.773Z,100868.63
2022-09-07T14:48:56.837Z,100864.03
2022-09-07T14:51:34.801Z,100866.66
2022-09-07T14:54:03.188Z,100859.63
2022-09-07T14:56:32.799Z,100857.28
2022-09-07T14:58:56.395Z,100863.19
2022-09-07T15:01:40.731Z,100868.03
2022-09-07T15:04:04.668Z,100869.19
2022-09-07T15:09:36.893Z,100869.47
2022-09-07T15:12:12.230Z,100867.81
2022-09-07T15:14:36.328Z,100856.00
2022-09-07T15:19:47.138Z,100841.34
2022-09-07T15:22:13.641Z,100843.19
2022-09-07T15:24:38.610Z,100848.84
2022-09-07T15:27:02.602Z,100836.56
2022-09-07T15:29:29.071Z,100843.44
2022-09-07T15:32:02.389Z,100844.25
2022-09-07T15:34:27.413Z,100844.59
2022-09-07T15:36:53.611Z,100847.06
2022-09-07T15:39:20.411Z,100843.81
2022-09-07T15:41:45.665Z,100849.13
2022-09-07T15:44:09.534Z,100846.28
2022-09-07T15:46:33.096Z,100839.38
2022-09-07T15:48:58.385Z,100837.63
2022-09-07T15:54:12.647Z,100841.72
2022-09-07T15:56:37.176Z,100834.97
2022-09-07T15:59:02.218Z,100840.78
2022-09-07T16:04:12.889Z,100834.78
2022-09-07T16:06:36.462Z,100844.69
2022-09-07T16:09:00.044Z,100833.91
2022-09-07T16:11:26.827Z,100828.97
2022-09-07T16:13:50.603Z,100824.69
2022-09-07T16:16:16.012Z,100818.44
2022-09-07T16:18:40.622Z,100813.28
2022-09-07T16:21:11.780Z,100821.75
2022-09-07T16:23:36.290Z,100824.31
2022-09-07T16:26:02.869Z,100816.28
2022-09-07T16:28:27.326Z,100810.97
2022-09-07T16:30:50.940Z,100801.56
2022-09-07T16:33:16.003Z,100800.78
2022-09-07T16:35:39.567Z,100807.88
2022-09-07T16:40:46.959Z,100787.53
2022-09-07T16:43:10.467Z,100792.72
2022-09-07T16:48:19.016Z,100787.75
2022-09-07T16:50:56.498Z,100784.38
2022-09-07T16:53:24.161Z,100781.47
2022-09-07T16:55:47.822Z,100780.44
2022-09-07T17:00:55.051Z,100786.03
2022-09-07T17:03:19.970Z,100778.53
2022-09-07T17:05:43.514Z,100779.84
2022-09-07T17:08:07.168Z,100778.81
2022-09-07T17:10:31.145Z,100777.34
2022-09-07T17:12:54.829Z,100782.19
2022-09-07T17:15:18.571Z,100778.16
2022-09-07T17:17:42.085Z,100787.06
2022-09-07T17:20:09.051Z,100788.53
2022-09-07T17:22:32.571Z,100798.16
2022-09-07T17:24:56.095Z,100789.56
2022-09-07T17:27:19.587Z,100794.63
2022-09-07T17:29:43.191Z,100802.47
2022-09-07T17:32:24.425Z,100795.44
2022-09-07T17:34:48.742Z,100794.75
2022-09-07T17:37:13.623Z,100791.75
2022-09-07T17:39:38.761Z,100790.84
2022-09-07T17:42:02.398Z,100794.13
2022-09-07T17:44:30.783Z,100794.09
2022-09-07T17:46:55.639Z,100790.53
2022-09-07T17:49:19.355Z,100787.38
2022-09-07T17:51:43.401Z,100780.06
2022-09-07T17:54:10.912Z,100787.94
2022-09-07T17:56:35.411Z,100798.03
2022-09-07T18:01:43.763Z,100796.09
2022-09-07T18:04:07.443Z,100810.72
2022-09-07T18:06:31.024Z,100810.84
2022-09-07T18:08:54.951Z,100803.59
2022-09-07T18:14:06.883Z,100808.50
2022-09-07T18:16:33.294Z,100815.50
2022-09-07T18:18:59.948Z,100816.56
2022-09-07T18:21:26.016Z,100825.66
2022-09-07T18:23:53.392Z,100826.50
2022-09-07T18:26:16.919Z,100817.22
2022-09-07T18:31:26.929Z,100826.72
2022-09-07T18:33:53.595Z,100827.59
2022-09-07T18:36:17.479Z,100828.63
2022-09-07T18:38:41.141Z,100830.28
2022-09-07T18:41:09.307Z,100830.28
2022-09-07T18:43:34.275Z,100842.53
2022-09-07T18:46:05.674Z,100850.94
2022-09-07T18:48:29.314Z,100857.03
2022-09-07T18:50:55.136Z,100850.47
2022-09-07T18:53:18.674Z,100856.34
2022-09-07T18:55:42.251Z,100857.97
2022-09-07T18:58:05.869Z,100861.38
2022-09-07T19:00:29.713Z,100860.06
2022-09-07T19:02:54.727Z,100851.19
2022-09-07T19:08:03.867Z,100843.09
2022-09-07T19:10:27.462Z,100847.06
2022-09-07T19:12:51.020Z,100856.72
2022-09-07T19:15:14.900Z,100855.22
2022-09-07T19:17:38.528Z,100854.94
2022-09-07T19:20:03.927Z,100861.84
2022-09-07T19:22:27.856Z,100858.84
2022-09-07T19:24:51.378Z,100856.28
2022-09-07T19:27:14.926Z,100858.13
2022-09-07T19:29:38.496Z,100855.16
2022-09-07T19:32:09.418Z,100850.59
2022-09-07T19:34:33.979Z,100855.75
2022-09-07T19:36:58.938Z,100842.81
2022-09-07T19:39:22.522Z,100836.31
2022-09-07T19:41:46.127Z,100836.47
2022-09-07T19:44:10.228Z,100841.69
2022-09-07T19:46:33.780Z,100838.28
2022-09-07T19:48:58.615Z,100842.88
2022-09-07T19:51:22.208Z,100851.16
2022-09-07T19:53:48.775Z,100841.94
2022-09-07T19:56:14.734Z,100840.81
2022-09-07T19:58:41.114Z,100841.81
2022-09-07T20:01:11.192Z,100844.13
2022-09-07T20:03:35.521Z,100829.09
2022-09-07T20:05:59.129Z,100834.13
2022-09-07T20:08:22.677Z,100824.19
2022-09-07T20:10:47.567Z,100813.94
2022-09-07T20:13:11.157Z,100828.19
2022-09-07T20:15:34.672Z,100820.53
2022-09-07T20:17:58.918Z,100822.34
2022-09-07T20:20:22.991Z,100815.66
2022-09-07T20:22:46.591Z,100817.06
2022-09-07T20:25:13.238Z,100826.56
2022-09-07T20:27:38.479Z,100808.41
2022-09-07T20:30:02.170Z,100809.81
2022-09-07T20:32:27.891Z,100807.81
2022-09-07T20:34:52.219Z,100813.28
2022-09-07T20:37:15.827Z,100796.38
2022-09-07T20:39:39.814Z,100787.91
2022-09-07T20:42:03.470Z,100786.81
2022-09-07T20:44:28.393Z,100778.88
2022-09-07T20:46:52.005Z,100786.72
2022-09-07T20:49:15.606Z,100787.00
2022-09-07T20:51:39.810Z,100792.78
2022-09-07T20:54:03.394Z,100791.63
2022-09-07T20:56:29.103Z,100794.09
2022-09-07T20:58:57.042Z,100791.75
2022-09-07T21:01:22.438Z,100784.88
2022-09-07T21:03:49.458Z,100790.94
2022-09-07T21:06:13.431Z,100798.34
2022-09-07T21:08:39.411Z,100794.41
2022-09-07T21:11:08.098Z,100799.50
2022-09-07T21:13:31.653Z,100791.69
2022-09-07T21:15:55.259Z,100789.16
2022-09-07T21:18:20.194Z,100790.19
2022-09-07T21:20:57.874Z,100789.34
2022-09-07T21:23:27.651Z,100795.16
2022-09-07T21:25:51.396Z,100795.66
2022-09-07T21:28:15.252Z,100778.81
2022-09-07T21:30:38.816Z,100785.66
2022-09-07T21:33:03.190Z,100782.25
2022-09-07T21:35:28.283Z,100781.44
2022-09-07T21:37:51.851Z,100783.38
2022-09-07T21:40:15.455Z,100777.81
2022-09-07T21:42:39.370Z,100780.44
2022-09-07T21:45:03.049Z,100787.00
2022-09-07T21:47:26.707Z,100778.56
2022-09-07T21:49:50.254Z,100793.34
2022-09-07T21:52:15.229Z,100787.69
2022-09-07T21:54:39.218Z,100782.16
2022-09-07T21:57:02.792Z,100776.19
2022-09-07T21:59:26.375Z,100777.16
2022-09-07T22:01:50.012Z,100778.34
2022-09-07T22:04:13.617Z,100776.81
2022-09-07T22:06:37.764Z,100785.09
2022-09-07T22:09:03.791Z,100776.09
2022-09-07T22:11:29.601Z,100772.13
2022-09-07T22:13:56.665Z,100769.22
2022-09-07T22:16:20.390Z,100778.91
2022-09-07T22:18:46.474Z,100774.94
2022-09-07T22:21:12.546Z,100776.00
2022-09-07T22:23:39.429Z,100774.88
2022-09-07T22:26:05.075Z,100780.78
2022-09-07T22:28:31.081Z,100773.72
2022-09-07T22:30:54.826Z,100779.09
2022-09-07T22:33:18.339Z,100779.19
2022-09-07T22:35:41.910Z,100787.56
2022-09-07T22:38:05.426Z,100785.16
2022-09-07T22:40:28.979Z,100786.13
2022-09-07T22:42:53.870Z,100778.28
2022-09-07T22:45:17.575Z,100783.41
2022-09-07T22:47:42.113Z,100785.28
2022-09-07T22:50:06.660Z,100783.66
2022-09-07T22:52:30.307Z,100777.88
2022-09-07T22:54:53.859Z,100774.72
2022-09-07T22:57:17.362Z,100767.28
2022-09-07T22:59:43.187Z,100775.91
2022-09-07T23:02:06.789Z,100773.16
2022-09-07T23:04:31.916Z,100762.34
2022-09-07T23:06:55.623Z,100765.78
2022-09-07T23:09:20.859Z,100757.81
2022-09-07T23:11:45.146Z,100764.53
2022-09-07T23:14:14.247Z,100751.56
2022-09-07T23:16:39.561Z,100747.22
2022-09-07T23:19:03.262Z,100748.38
2022-09-07T23:21:27.228Z,100746.31
2022-09-07T23:23:52.370Z,100744.22
2022-09-07T23:26:15.864Z,100734.75
2022-09-07T23:28:39.752Z,100737.94
2022-09-07T23:31:03.607Z,100741.31
2022-09-07T23:33:28.934Z,100737.75
2022-09-07T23:36:04.195Z,100743.56
2022-09-07T23:38:28.407Z,100740.56
2022-09-07T23:40:51.970Z,100725.41
2022-09-07T23:43:15.631Z,100731.75
2022-09-07T23:45:39.708Z,100724.34
2022-09-07T23:48:03.827Z,100725.56
2022-09-07T23:50:28.722Z,100723.28
2022-09-07T23:52:52.290Z,100717.09
2022-09-07T23:55:15.855Z,100718.63
2022-09-07T23:57:39.976Z,100719.03
